Tiempo atmosférico en la estación meteorológica de Forua, Bizkaia (45 m.)



Fecha
DESCASC
Temp. máxima en grados centígrados (hora)
DESCASC
Temp. mínima en grados centígrados (hora)
DESCASC
Temp. media en grados centígrados
DESCASC
Racha de viento máxima en m/sg (hora)
DESCASC
Velocidad máxima media en intervalos de 10 minutos(hora)
DESCASC
Precipitaciones diarias en mm
DESCASC
Precipitaciones de 00:00 a 06:00 en mm
DESCASC
Precipitaciones de 06:00 a 12:00 en mm
DESCASC
Precipitaciones de 12:00 a 18:00 en mm
DESCASC
Precipitaciones de 18:00 a 24:00 en mm
DESCASC
18-08-2019 25.5 (11:50) 15 (07:10) 20.3 8.89 (17:10) 4.17 (17:00) 2.6 0 0 0 2.6
17-08-2019 30.9 (13:40) 13.1 (07:30) 22 8.33 (15:40) 5 (15:40) 0 0 0 0 0
16-08-2019 27.1 (17:10) 11.2 (07:50) 19.2 7.22 (14:10) 4.72 (14:10) 0 0 0 0 0
15-08-2019 24.6 (15:50) 16.2 (00:00) 20.4 6.94 (17:00) 3.89 (06:00) 0.8 0.8 0 0 0
14-08-2019 27.9 (15:50) 10.8 (00:00) 19.3 7.22 (16:10) 4.44 (14:30) 0 0 0 0 0
13-08-2019 23.4 (15:30) 12.3 (00:00) 17.8 6.94 (16:50) 3.89 (16:50) 0 0 0 0 0
12-08-2019 21.8 (19:10) 14 (00:00) 17.9 11.39 (13:00) 5.28 (15:40) 1.8 0 1.8 0 0
11-08-2019 22.1 (16:10) 16.3 (00:00) 19.2 8.61 (17:20) 3.61 (17:20) 11.4 4.8 6.6 0 0
10-08-2019 25 (16:10) 17.7 (00:00) 21.4 7.78 (10:40) 4.44 (10:40) 0.6 0 0 0 0.6
09-08-2019 29.1 (09:00) 19.1 (00:00) 24.1 9.17 (18:20) 5.28 (18:40) 0 0 0 0 0
08-08-2019 34.4 (16:50) 18.3 (00:00) 26.4 9.72 (14:50) 5.28 (14:50) 0 0 0 0 0
07-08-2019 27.1 (12:50) 18.3 (00:00) 22.7 7.5 (15:30) 4.17 (15:40) 0 0 0 0 0
06-08-2019 27.5 (15:10) 15.7 (00:00) 21.6 7.5 (17:00) 4.72 (16:50) 0 0 0 0 0
05-08-2019 25.4 (15:00) 15.5 (00:00) 20.4 5.83 (16:10) 3.89 (17:00) 0 0 0 0 0
04-08-2019 23.3 (18:00) 16.8 (00:00) 20 5 (14:30) 2.78 (17:30) 0 0 0 0 0
03-08-2019 27.2 (14:00) 15 (00:00) 21.1 7.5 (16:40) 4.72 (16:20) 0 0 0 0 0
02-08-2019 24.5 (16:00) 17.8 (00:00) 21.1 7.5 (16:10) 4.44 (17:30) 0 0 0 0 0
01-08-2019 23.9 (14:20) 16.9 (00:00) 20.4 12.22 (05:10) 6.67 (05:10) 6.6 5 1.6 0 0
31-07-2019 22.4 (14:50) 11.1 (00:00) 16.8 7.22 (16:20) 4.17 (15:00) 0 0 0 0 0
30-07-2019 23.6 (14:40) 14.9 (00:00) 19.3 10.28 (13:00) 5 (15:10) 0.8 0.8 0 0 0
29-07-2019 25.9 (12:50) 12.7 (00:00) 19.3 9.44 (14:30) 5 (11:50) 0.4 0 0 0 0.4
28-07-2019 23.4 (14:40) 14.8 (00:00) 19.1 6.39 (16:30) 3.89 (16:50) 5 4.6 0.4 0 0
27-07-2019 20.6 (17:30) 15.7 (00:00) 18.2 9.17 (18:50) 4.44 (18:50) 14.8 1.2 4.2 2.6 6.8
26-07-2019 20.6 (00:00) 17.2 (00:00) 18.9 6.39 (08:40) 3.33 (07:30) 20.8 3.6 12.4 3 1.8
25-07-2019 28.2 (15:00) 20.6 (00:00) 24.4 8.06 (14:00) 4.72 (14:00) 4.6 0 0 0 4.6
24-07-2019 30.2 (15:40) 19.2 (00:00) 24.7 8.06 (16:00) 5 (16:10) 2.8 0 0 0 2.8
23-07-2019 40.8 (15:50) 18.6 (00:00) 29.7 18.61 (21:10) 8.33 (21:10) 14.4 0 0 0 14.4
22-07-2019 29.1 (17:40) 19.8 (00:00) 24.4 9.17 (23:40) 5.28 (16:00) 0 0 0 0 0
21-07-2019 26 (18:10) 19.4 (00:00) 22.7 5.83 (15:50) 3.61 (15:50) 1.8 0.6 1.2 0 0

Gráficas

Temp. máximas Temp. mínimas Temp. medias Precipitaciones Rachas de viento máximas Velocidades máximas media en intervalos de 10 minutos

Datos horarios

Fecha y hora oficial Temperatura (ºC) Velocidad del viento (km/h) Dirección del viento Racha (km/h) Dirección de racha Precipitación (mm) Presión (hPa) Tendencia (hPa) Humedad (%)
2019-08-19 23:00:00 17.8 6 Sudoeste 15 Sur 0 -- -- 87
2019-08-19 22:00:00 18.5 2 Nordeste 8 Este 0 -- -- 82
2019-08-19 21:00:00 18.8 5 Nordeste 16 Nordeste 0 -- -- 83
2019-08-19 20:00:00 19.2 5 Nordeste 16 Nordeste 0 -- -- 83
2019-08-19 19:00:00 20 6 Nordeste 14 Norte 0 -- -- 81
2019-08-19 18:00:00 20.4 5 Nordeste 12 Este 0 -- -- 78
2019-08-19 17:00:00 20.3 8 Nordeste 15 Nordeste 0 -- -- 79
2019-08-19 16:00:00 20.3 5 Nordeste 13 Nordeste 0 -- -- 85
2019-08-19 15:00:00 19.2 3 Nordeste 9 Nordeste 0 -- -- 85
2019-08-19 14:00:00 18.3 0 Calma 6 Sur 0 -- -- 92
2019-08-19 13:00:00 17.3 4 Oeste 10 Sur 0.8 -- -- 95
2019-08-19 12:00:00 18.4 6 Sudoeste 10 Sudoeste 0 -- -- 91
2019-08-19 11:00:00 17.6 4 Sur 10 Sudoeste 0 -- -- 95
2019-08-19 10:00:00 16.5 5 Sudoeste 9 Sudoeste 0 -- -- 99
2019-08-19 09:00:00 16.3 3 Sudoeste 6 Norte 0 -- -- 100
2019-08-19 08:00:00 16 0 Calma 6 Norte 0.2 -- -- 100
2019-08-19 07:00:00 16.2 3 Norte 4 Norte 1.2 -- -- 100
2019-08-19 06:00:00 16.2 2 Sudoeste 6 Sudoeste 0 -- -- 100
2019-08-19 05:00:00 16.3 2 Sudoeste 9 Sur 0 -- -- 100
2019-08-19 04:00:00 16.3 4 Sudoeste 8 Sudoeste 0 -- -- 99
2019-08-19 03:00:00 16.4 4 Sudoeste 8 Sudoeste 0 -- -- 99
2019-08-19 02:00:00 16.4 4 Sudoeste 10 Sudoeste 0 -- -- 99
2019-08-19 01:00:00 16.4 4 Sudoeste 9 Sudoeste 0 -- -- 99
2019-08-19 00:00:00 16.6 3 Sur 8 Sudoeste 0.4 -- -- 99
2019-08-18 23:00:00 16.5 4 Sudoeste 9 Sudoeste 0 -- -- 98
2019-08-18 22:00:00 16.6 4 Sudoeste 23 Norte 1.2 -- -- 96
2019-08-18 21:00:00 17.4 9 Nordeste 20 Norte 0.4 -- -- 95
2019-08-18 20:00:00 17.8 7 Nordeste 22 Norte 0.4 -- -- 94
2019-08-18 19:00:00 18.8 8 Nordeste 19 Norte 0.2 -- -- 95
2019-08-18 18:00:00 18.9 11 Nordeste 32 Nordeste 0 -- -- 95
2019-08-18 17:00:00 20 15 Nordeste 28 Nordeste 0 -- -- 92
2019-08-18 16:00:00 21.8 13 Nordeste 23 Este 0 -- -- 86
2019-08-18 15:00:00 23.3 10 Nordeste 21 Este 0 -- -- 80
2019-08-18 14:00:00 23.2 8 Este 21 Nordeste 0 -- -- 79
2019-08-18 13:00:00 23.5 11 Nordeste 29 Este 0 -- -- 80
2019-08-18 12:00:00 25.2 12 Nordeste 26 Nordeste 0 -- -- 69
2019-08-18 11:00:00 24 4 Este 9 Sudeste 0 -- -- 79
2019-08-18 10:00:00 23.1 4 Sudoeste 16 Sudoeste 0 -- -- 80
2019-08-18 09:00:00 19.2 6 Sudoeste 11 Sur 0 -- -- 89
2019-08-18 08:00:00 15.6 9 Sudoeste 18 Sudoeste 0 -- -- 99
2019-08-18 07:00:00 15.1 5 Sudoeste 12 Sudoeste 0 -- -- 97
2019-08-18 06:00:00 15.3 9 Oeste 12 Oeste 0 -- -- 96
2019-08-18 05:00:00 15.5 3 Noroeste 10 Sur 0 -- -- 97
2019-08-18 04:00:00 15.9 4 Sudeste 13 Noroeste 0 -- -- 95
2019-08-18 03:00:00 16 5 Sur 10 Oeste 0 -- -- 95
2019-08-18 02:00:00 16.7 5 Sudoeste 8 Sudoeste 0 -- -- 93
2019-08-18 01:00:00 17.7 3 Sudoeste 5 Sudoeste 0 -- -- 90
2019-08-18 00:00:00 18.5 2 Sudoeste 6 Oeste 0 -- -- 87
2019-08-17 23:00:00 19.8 3 Oeste 5 Oeste 0 -- -- 82
2019-08-17 22:00:00 21.3 3 Este 9 Norte 0 -- -- 79
2019-08-17 21:00:00 22.6 6 Nordeste 17 Nordeste 0 -- -- 69
2019-08-17 20:00:00 25.9 7 Nordeste 19 Norte 0 -- -- 62
2019-08-17 19:00:00 27.5 13 Nordeste 20 Norte 0 -- -- 59
2019-08-17 18:00:00 27.8 10 Nordeste 21 Norte 0 -- -- 56
2019-08-17 17:00:00 28.1 13 Nordeste 27 Norte 0 -- -- 56
2019-08-17 16:00:00 28.3 17 Nordeste 30 Norte 0 -- -- 52
2019-08-17 15:00:00 28.4 15 Nordeste 28 Norte 0 -- -- 58
2019-08-17 14:00:00 29.9 10 Nordeste 20 Nordeste 0 -- -- 55
2019-08-17 13:00:00 29.7 4 Norte 9 Oeste 0 -- -- 46
2019-08-17 12:00:00 27.1 4 Sudoeste 12 Oeste 0 -- -- 53
2019-08-17 11:00:00 23.7 6 Sudoeste 11 Oeste 0 -- -- 63
2019-08-17 10:00:00 20 3 Sur 12 Sudoeste 0 -- -- 78
2019-08-17 09:00:00 16.1 6 Sudoeste 10 Sudoeste 0 -- -- 91
2019-08-17 08:00:00 13.6 5 Sudoeste 9 Sudoeste 0 -- -- 99
2019-08-17 07:00:00 13.4 3 Sudoeste 10 Oeste 0 -- -- 97
2019-08-17 06:00:00 13.7 3 Sur 8 Oeste 0 -- -- 97
2019-08-17 05:00:00 14.2 5 Sudoeste 9 Sudoeste 0 -- -- 95
2019-08-17 04:00:00 14.7 2 Oeste 9 Sudoeste 0 -- -- 93
2019-08-17 03:00:00 15.1 5 Sudoeste 12 Sudoeste 0 -- -- 92
2019-08-17 02:00:00 15.6 6 Sudoeste 9 Sudoeste 0 -- -- 90
2019-08-17 01:00:00 16.2 4 Sudoeste 10 Sudoeste 0 -- -- 86
2019-08-17 00:00:00 17 8 Sudoeste 12 Sudoeste 0 -- -- 82
2019-08-16 23:00:00 17.8 6 Sudoeste 13 Sudoeste 0 -- -- 78
2019-08-16 22:00:00 19.2 3 Noroeste 11 Oeste 0 -- -- 72
2019-08-16 21:00:00 21.3 2 Este 17 Norte 0 -- -- 59
2019-08-16 20:00:00 23.9 10 Norte 22 Norte 0 -- -- 60
2019-08-16 19:00:00 25.1 12 Norte 25 Norte 0 -- -- 63
2019-08-16 18:00:00 26.1 13 Nordeste 21 Norte 0 -- -- 63
2019-08-16 17:00:00 26.9 10 Nordeste 23 Norte 0 -- -- 61
2019-08-16 16:00:00 26.9 11 Nordeste 22 Norte 0 -- -- 60
2019-08-16 15:00:00 26.6 13 Nordeste 26 Nordeste 0 -- -- 62
2019-08-16 14:00:00 25.7 15 Nordeste 26 Norte 0 -- -- 65
2019-08-16 13:00:00 26 5 Norte 12 Norte 0 -- -- 59
2019-08-16 12:00:00 24 4 Norte 9 Nordeste 0 -- -- 64
2019-08-16 11:00:00 20.8 0 Calma 5 Sudeste 0 -- -- 73
2019-08-16 10:00:00 17.5 3 Sur 9 Sudoeste 0 -- -- 86
2019-08-16 09:00:00 14.1 4 Sudoeste 9 Sudoeste 0 -- -- 99
2019-08-16 08:00:00 11.4 6 Oeste 8 Oeste 0 -- -- 100
2019-08-16 07:00:00 11.5 3 Sudoeste 9 Sudoeste 0 -- -- 99
2019-08-16 06:00:00 11.8 6 Sur 10 Oeste 0 -- -- 99
2019-08-16 05:00:00 12.4 6 Sudoeste 8 Sudoeste 0 -- -- 98
2019-08-16 04:00:00 13 5 Sudoeste 8 Sudoeste 0 -- -- 98
2019-08-16 03:00:00 13.6 5 Sudoeste 9 Oeste 0 -- -- 98
2019-08-16 02:00:00 14.3 6 Sudoeste 9 Sudoeste 0 -- -- 96
2019-08-16 01:00:00 15.1 2 Noroeste 8 Sudoeste 0 -- -- 94
2019-08-16 00:00:00 16.2 4 Sudoeste 8 Sudoeste 0 -- -- 92
2019-08-15 23:00:00 16.6 0 Calma 8 Nordeste 0 -- -- 90
2019-08-15 22:00:00 18.3 3 Norte 8 Nordeste 0 -- -- 81
2019-08-15 21:00:00 19.7 4 Norte 8 Norte 0 -- -- 77
2019-08-15 20:00:00 22.2 5 Nordeste 15 Este 0 -- -- 67
2019-08-15 19:00:00 22.9 7 Nordeste 18 Norte 0 -- -- 63
2019-08-15 18:00:00 24 11 Nordeste 21 Norte 0 -- -- 65
2019-08-15 17:00:00 23.7 13 Nordeste 25 Norte 0 -- -- 62
2019-08-15 16:00:00 24.5 12 Nordeste 22 Norte 0 -- -- 64
2019-08-15 15:00:00 23.9 9 Nordeste 22 Nordeste 0 -- -- 63
2019-08-15 14:00:00 21.9 9 Nordeste 23 Nordeste 0 -- -- 69
2019-08-15 13:00:00 22.4 8 Este 14 Norte 0 -- -- 74
2019-08-15 12:00:00 20.8 4 Sudoeste 8 Oeste 0 -- -- 84
2019-08-15 11:00:00 20 2 Este 8 Oeste 0 -- -- 89
2019-08-15 10:00:00 19.4 6 Noroeste 9 Noroeste 0 -- -- 91
2019-08-15 09:00:00 18.2 0 Calma 9 Oeste 0 -- -- 97
2019-08-15 08:00:00 18 5 Oeste 9 Noroeste 0 -- -- 96
2019-08-15 07:00:00 18.2 0 Calma 13 Norte 0 -- -- 95
2019-08-15 06:00:00 18.4 14 Norte 22 Norte 0 -- -- 95
2019-08-15 05:00:00 19.2 4 Norte 9 Oeste 0.2 -- -- 99
2019-08-15 04:00:00 19.1 8 Sudoeste 12 Sudoeste 0.4 -- -- 99
2019-08-15 03:00:00 19.1 7 Sudoeste 11 Sudoeste 0 -- -- 99
2019-08-15 02:00:00 19.2 5 Sudoeste 10 Sudoeste 0.2 -- -- 98
2019-08-15 01:00:00 19.3 6 Sudoeste 11 Sur 0 -- -- 97
2019-08-15 00:00:00 19.6 7 Sudoeste 13 Oeste 0 -- -- 94
2019-08-14 23:00:00 20.7 6 Oeste 18 Noroeste 0 -- -- 87
2019-08-14 22:00:00 21.5 7 Noroeste 16 Norte 0 -- -- 81
2019-08-14 21:00:00 22 5 Este 13 Este 0 -- -- 79
2019-08-14 20:00:00 23 2 Este 10 Noroeste 0 -- -- 76
2019-08-14 19:00:00 23.6 8 Oeste 19 Nordeste 0 -- -- 69
2019-08-14 18:00:00 24.9 6 Nordeste 16 Nordeste 0 -- -- 62
2019-08-14 17:00:00 25.6 10 Nordeste 26 Nordeste 0 -- -- 55
2019-08-14 16:00:00 27.8 13 Nordeste 26 Norte 0 -- -- 46
2019-08-14 15:00:00 27.1 13 Norte 26 Norte 0 -- -- 55
2019-08-14 14:00:00 25.8 12 Nordeste 22 Nordeste 0 -- -- 59
2019-08-14 13:00:00 26.2 10 Nordeste 17 Nordeste 0 -- -- 54
2019-08-14 12:00:00 25 4 Sudoeste 11 Oeste 0 -- -- 56
2019-08-14 11:00:00 21.6 5 Sudoeste 11 Oeste 0 -- -- 67
2019-08-14 10:00:00 17.9 6 Sudoeste 12 Oeste 0 -- -- 77
2019-08-14 09:00:00 14.4 7 Sudoeste 11 Sudoeste 0 -- -- 94
2019-08-14 08:00:00 11.5 6 Sudoeste 8 Oeste 0 -- -- 100
2019-08-14 07:00:00 10.9 3 Oeste 18 Sudoeste 0 -- -- 99
2019-08-14 06:00:00 11.4 4 Sudoeste 10 Sudoeste 0 -- -- 98
2019-08-14 05:00:00 11.8 5 Sudoeste 8 Oeste 0 -- -- 98
2019-08-14 04:00:00 12.1 6 Sudoeste 11 Sudoeste 0 -- -- 97
2019-08-14 03:00:00 12.6 5 Sudoeste 9 Sudoeste 0 -- -- 96
2019-08-14 02:00:00 13 6 Sudoeste 8 Sudoeste 0 -- -- 95
2019-08-14 01:00:00 13.6 4 Sudoeste 9 Sudoeste 0 -- -- 94
2019-08-14 00:00:00 14.6 5 Sudoeste 8 Oeste 0 -- -- 91
2019-08-13 23:00:00 15.8 0 Calma 6 Nordeste 0 -- -- 87
2019-08-13 22:00:00 17.4 0 Calma 6 Sur 0 -- -- 78
2019-08-13 21:00:00 18.6 3 Este 17 Este 0 -- -- 74
2019-08-13 20:00:00 20.1 9 Este 18 Sudeste 0 -- -- 68
2019-08-13 19:00:00 20.9 10 Este 17 Este 0 -- -- 67
2019-08-13 18:00:00 21.3 12 Este 23 Sudeste 0 -- -- 62
2019-08-13 17:00:00 21.6 13 Este 25 Nordeste 0 -- -- 62
2019-08-13 16:00:00 22.6 11 Este 22 Norte 0 -- -- 60
2019-08-13 15:00:00 22.1 10 Nordeste 21 Este 0 -- -- 62
2019-08-13 14:00:00 22.1 10 Nordeste 21 Norte 0 -- -- 61
2019-08-13 13:00:00 20.9 8 Nordeste 17 Nordeste 0 -- -- 65
2019-08-13 12:00:00 21.1 7 Norte 12 Nordeste 0 -- -- 70
2019-08-13 11:00:00 19.1 5 Sudoeste 12 Sudoeste 0 -- -- 81
2019-08-13 10:00:00 14.6 3 Sur 8 Sur 0 -- -- 98
2019-08-13 09:00:00 12.9 5 Sudoeste 8 Sudoeste 0 -- -- 100
2019-08-13 08:00:00 12.4 3 Sur 6 Sudoeste 0 -- -- 99
2019-08-13 07:00:00 12.7 4 Sudoeste 8 Oeste 0 -- -- 98
2019-08-13 06:00:00 13 4 Oeste 6 Sudoeste 0 -- -- 97
2019-08-13 05:00:00 13.3 3 Sudoeste 10 Sur 0 -- -- 96
2019-08-13 04:00:00 13.6 6 Sur 11 Oeste 0 -- -- 96
2019-08-13 03:00:00 13.3 3 Oeste 8 Sudoeste 0 -- -- 95
2019-08-13 02:00:00 13.9 6 Oeste 7 Oeste 0 -- -- 94
2019-08-13 01:00:00 14.4 0 Calma 7 Sudoeste 0 -- -- 93
2019-08-13 00:00:00 14.9 4 Sudoeste 9 Sudoeste 0 -- -- 92
2019-08-12 23:00:00 15.4 4 Sudoeste 9 Oeste 0 -- -- 88
2019-08-12 22:00:00 16.4 7 Sudoeste 11 Oeste 0 -- -- 81
2019-08-12 21:00:00 18.3 5 Norte 15 Norte 0 -- -- 72
2019-08-12 20:00:00 20.6 10 Nordeste 24 Norte 0 -- -- 65
2019-08-12 19:00:00 21.6 11 Norte 27 Norte 0 -- -- 64
2019-08-12 18:00:00 20.1 5 Norte 23 Norte 0 -- -- 74
2019-08-12 17:00:00 20.1 9 Norte 30 Norte 0 -- -- 70
2019-08-12 16:00:00 20.2 18 Norte 37 Noroeste 0 -- -- 66
2019-08-12 15:00:00 21.1 18 Noroeste 36 Nordeste 0 -- -- 66
2019-08-12 14:00:00 21.1 14 Norte 35 Norte 0 -- -- 68
2019-08-12 13:00:00 21 18 Norte 41 Noroeste 0 -- -- 68
2019-08-12 12:00:00 19.7 5 Nordeste 22 Noroeste 0 -- -- 72
2019-08-12 11:00:00 17.7 6 Noroeste 27 Norte 1.8 -- -- 81
2019-08-12 10:00:00 18.2 11 Norte 21 Noroeste 0 -- -- 78
2019-08-12 09:00:00 16.2 5 Oeste 13 Sur 0 -- -- 87
2019-08-12 08:00:00 14.9 5 Sudoeste 13 Noroeste 0 -- -- 92
2019-08-12 07:00:00 14.7 6 Oeste 18 Oeste 0 -- -- 93
2019-08-12 06:00:00 14.3 8 Oeste 13 Noroeste 0 -- -- 95
2019-08-12 05:00:00 14.9 8 Oeste 14 Sudoeste 0 -- -- 92
2019-08-12 04:00:00 15.6 4 Sudoeste 12 Oeste 0 -- -- 92
2019-08-12 03:00:00 16.1 6 Sudoeste 13 Sudeste 0 -- -- 90
2019-08-12 02:00:00 17 4 Oeste 16 Norte 0 -- -- 86
2019-08-12 01:00:00 17.1 7 Norte 15 Noroeste 0 -- -- 86
2019-08-12 00:00:00 17.1 5 Oeste 10 Sudoeste 0 -- -- 94
2019-08-11 23:00:00 17.5 3 Sudoeste 7 Sudoeste 0 -- -- 92
2019-08-11 22:00:00 18.1 0 Calma 10 Norte 0 -- -- 88
2019-08-11 21:00:00 18.9 5 Norte 11 Norte 0 -- -- 84
2019-08-11 20:00:00 20.7 7 Norte 17 Nordeste 0 -- -- 77
2019-08-11 19:00:00 19.9 11 Nordeste 24 Nordeste 0 -- -- 80
2019-08-11 18:00:00 19.3 11 Nordeste 31 Norte 0 -- -- 87
2019-08-11 17:00:00 20.8 7 Nordeste 26 Nordeste 0 -- -- 80
2019-08-11 16:00:00 21.9 11 Nordeste 21 Nordeste 0 -- -- 78
2019-08-11 15:00:00 21 9 Nordeste 18 Norte 0 -- -- 80
2019-08-11 14:00:00 20.4 3 Este 9 Nordeste 0 -- -- 85
2019-08-11 13:00:00 19.1 3 Sudeste 8 Este 0 -- -- 87
2019-08-11 12:00:00 18.5 5 Este 7 Este 0 -- -- 92
2019-08-11 11:00:00 17.5 0 Calma 5 Noroeste 0 -- -- 99
2019-08-11 10:00:00 16.6 3 Sudoeste 5 Sudoeste 0.2 -- -- 100
2019-08-11 09:00:00 16.4 3 Sudoeste 4 Sudoeste 0 -- -- 100
2019-08-11 08:00:00 16.3 0 Calma 6 Oeste 2.2 -- -- 100
2019-08-11 07:00:00 16.4 3 Noroeste 16 Norte 4.2 -- -- 99
2019-08-11 06:00:00 17.2 8 Nordeste 16 Nordeste 4.2 -- -- 99
2019-08-11 05:00:00 17.3 5 Oeste 17 Nordeste 0.4 -- -- 99
2019-08-11 04:00:00 17.5 4 Nordeste 12 Sudoeste 0.2 -- -- 98
2019-08-11 03:00:00 17.6 5 Sudoeste 11 Oeste 0 -- -- 97
2019-08-11 02:00:00 17.7 3 Sudoeste 6 Oeste 0 -- -- 96
2019-08-11 01:00:00 17.7 2 Sudeste 6 Sur 0 -- -- 96
2019-08-11 00:00:00 17.8 4 Sudoeste 6 Sudoeste 0 -- -- 95
2019-08-10 23:00:00 17.9 4 Sudoeste 11 Oeste 0.2 -- -- 95
2019-08-10 22:00:00 18.5 0 Calma 14 Norte 0.4 -- -- 91
2019-08-10 21:00:00 19.6 13 Norte 24 Norte 0 -- -- 81
2019-08-10 20:00:00 21 3 Este 15 Nordeste 0 -- -- 77
2019-08-10 19:00:00 21.7 5 Nordeste 13 Este 0 -- -- 76
2019-08-10 18:00:00 21.8 9 Este 20 Nordeste 0 -- -- 74
2019-08-10 17:00:00 23.4 10 Nordeste 21 Nordeste 0 -- -- 69
2019-08-10 16:00:00 24.1 10 Nordeste 26 Nordeste 0 -- -- 67
2019-08-10 15:00:00 24.2 10 Nordeste 23 Este 0 -- -- 63
2019-08-10 14:00:00 22.5 8 Nordeste 21 Nordeste 0 -- -- 74
2019-08-10 13:00:00 24 6 Este 18 Este 0 -- -- 69
2019-08-10 12:00:00 22 4 Sudeste 9 Sudeste 0 -- -- 75
2019-08-10 11:00:00 19 4 Sudeste 28 Norte 0 -- -- 92
2019-08-10 10:00:00 20.6 5 Sudoeste 9 Sudoeste 0 -- -- 90
2019-08-10 09:00:00 19.5 4 Sudoeste 8 Noroeste 0 -- -- 95
2019-08-10 08:00:00 19.1 3 Este 6 Este 0 -- -- 92
2019-08-10 07:00:00 18.7 3 Sudoeste 8 Oeste 0 -- -- 95
2019-08-10 06:00:00 18.7 3 Oeste 7 Nordeste 0 -- -- 95
2019-08-10 05:00:00 18.3 5 Norte 9 Nordeste 0 -- -- 97
2019-08-10 04:00:00 18 3 Sudoeste 6 Sudoeste 0 -- -- 96
2019-08-10 03:00:00 17.9 4 Sudoeste 6 Sudoeste 0 -- -- 97
2019-08-10 02:00:00 17.9 3 Sudoeste 8 Sudoeste 0 -- -- 96
2019-08-10 01:00:00 18.3 4 Oeste 6 Oeste 0 -- -- 94
2019-08-10 00:00:00 19.1 2 Norte 7 Nordeste 0 -- -- 92
2019-08-09 23:00:00 20.1 4 Norte 6 Sudoeste 0 -- -- 88
2019-08-09 22:00:00 21.4 0 Calma 8 Norte 0 -- -- 85
2019-08-09 21:00:00 22.4 4 Nordeste 15 Este 0 -- -- 83
2019-08-09 20:00:00 22.7 8 Este 23 Sudeste 0 -- -- 82
2019-08-09 19:00:00 23.3 14 Este 33 Este 0 -- -- 81
2019-08-09 18:00:00 25.1 16 Este 30 Este 0 -- -- 76
2019-08-09 17:00:00 24.4 5 Nordeste 18 Este 0 -- -- 82
2019-08-09 16:00:00 25.5 8 Este 21 Este 0 -- -- 78
2019-08-09 15:00:00 27.2 3 Sudoeste 10 Norte 0 -- -- 73
2019-08-09 14:00:00 25.5 6 Nordeste 24 Sudeste 0 -- -- 76
2019-08-09 13:00:00 24.8 13 Este 22 Nordeste 0 -- -- 76
2019-08-09 12:00:00 25.2 10 Nordeste 27 Norte 0 -- -- 79
2019-08-09 11:00:00 24.7 13 Norte 29 Norte 0 -- -- 85
2019-08-09 10:00:00 25.5 18 Nordeste 32 Norte 0 -- -- 79
2019-08-09 09:00:00 29.1 10 Noroeste 30 Noroeste 0 -- -- 57
2019-08-09 08:00:00 27.8 3 Sur 25 Noroeste 0 -- -- 55
2019-08-09 07:00:00 25.7 6 Sudoeste 24 Oeste 0 -- -- 59
2019-08-09 06:00:00 25.3 4 Sudoeste 13 Oeste 0 -- -- 63
2019-08-09 05:00:00 23.8 10 Oeste 23 Sudoeste 0 -- -- 72
2019-08-09 04:00:00 23.6 11 Oeste 17 Oeste 0 -- -- 73
2019-08-09 03:00:00 22.7 10 Sudoeste 17 Oeste 0 -- -- 81
2019-08-09 02:00:00 22.8 13 Oeste 21 Sudoeste 0 -- -- 82
2019-08-09 01:00:00 22.5 11 Sudoeste 16 Oeste 0 -- -- 85
2019-08-09 00:00:00 23.2 8 Sudoeste 12 Sudoeste 0 -- -- 83
2019-08-08 23:00:00 24 7 Sudoeste 10 Oeste 0 -- -- 81
2019-08-08 22:00:00 26 5 Nordeste 10 Norte 0 -- -- 71
2019-08-08 21:00:00 27.5 6 Nordeste 18 Nordeste 0 -- -- 63
2019-08-08 20:00:00 30 11 Nordeste 23 Este 0 -- -- 56
2019-08-08 19:00:00 31.5 9 Nordeste 20 Este 0 -- -- 53
2019-08-08 18:00:00 32.4 14 Norte 23 Norte 0 -- -- 50
2019-08-08 17:00:00 34.3 10 Nordeste 21 Este 0 -- -- 49
2019-08-08 16:00:00 33.3 8 Oeste 28 Oeste 0 -- -- 50
2019-08-08 15:00:00 33.3 13 Oeste 35 Oeste 0 -- -- 48
2019-08-08 14:00:00 32.7 14 Oeste 26 Sudoeste 0 -- -- 50
2019-08-08 13:00:00 31.7 11 Sudoeste 30 Sudoeste 0 -- -- 52
2019-08-08 12:00:00 30.2 14 Sudoeste 33 Oeste 0 -- -- 55
2019-08-08 11:00:00 28.9 16 Oeste 28 Sudoeste 0 -- -- 58
2019-08-08 10:00:00 27.4 7 Sudoeste 15 Sudoeste 0 -- -- 64
2019-08-08 09:00:00 23.2 9 Sudoeste 12 Sudoeste 0 -- -- 77
2019-08-08 08:00:00 19.1 6 Sudoeste 12 Sudoeste 0 -- -- 96
2019-08-08 07:00:00 18.4 6 Sudoeste 10 Sudoeste 0 -- -- 99
2019-08-08 06:00:00 18.8 7 Sudoeste 10 Sur 0 -- -- 99
2019-08-08 05:00:00 19.2 5 Sudoeste 9 Sudoeste 0 -- -- 99
2019-08-08 04:00:00 19.7 4 Sudoeste 7 Sudoeste 0 -- -- 98
2019-08-08 03:00:00 20.3 4 Sudoeste 6 Oeste 0 -- -- 97
2019-08-08 02:00:00 21 2 Este 5 Norte 0 -- -- 95
2019-08-08 01:00:00 21.3 3 Nordeste 4 Norte 0 -- -- 94
2019-08-08 00:00:00 21.9 2 Nordeste 10 Nordeste 0 -- -- 92
2019-08-07 23:00:00 22.3 7 Este 16 Nordeste 0 -- -- 91
2019-08-07 22:00:00 22.7 5 Nordeste 18 Norte 0 -- -- 88
2019-08-07 21:00:00 23.5 9 Nordeste 18 Nordeste 0 -- -- 83
2019-08-07 20:00:00 25.4 10 Nordeste 24 Nordeste 0 -- -- 74
2019-08-07 19:00:00 25.9 14 Este 26 Este 0 -- -- 70
2019-08-07 18:00:00 26.4 14 Este 25 Este 0 -- -- 70
2019-08-07 17:00:00 26.3 15 Este 26 Nordeste 0 -- -- 69
2019-08-07 16:00:00 26.9 15 Este 27 Sudeste 0 -- -- 69
2019-08-07 15:00:00 26.7 14 Este 22 Este 0 -- -- 70
2019-08-07 14:00:00 26.5 11 Este 21 Este 0 -- -- 69
2019-08-07 13:00:00 27 8 Nordeste 19 Nordeste 0 -- -- 70
2019-08-07 12:00:00 26.6 7 Nordeste 16 Nordeste 0 -- -- 72
2019-08-07 11:00:00 25.2 3 Norte 10 Sudoeste 0 -- -- 74
2019-08-07 10:00:00 23.2 3 Sur 10 Oeste 0 -- -- 82
2019-08-07 09:00:00 20.3 6 Sudoeste 12 Sudoeste 0 -- -- 96
2019-08-07 08:00:00 18.4 6 Sudoeste 9 Sudoeste 0 -- -- 99
2019-08-07 07:00:00 18.5 4 Sudoeste 5 Sur 0 -- -- 99
2019-08-07 06:00:00 18.6 0 Calma 5 Noroeste 0 -- -- 99
2019-08-07 05:00:00 18.7 3 Sudeste 10 Oeste 0 -- -- 98
2019-08-07 04:00:00 18.8 4 Sur 8 Sur 0 -- -- 98
2019-08-07 03:00:00 19.1 4 Noroeste 9 Sudoeste 0 -- -- 98
2019-08-07 02:00:00 19.5 2 Oeste 8 Sudoeste 0 -- -- 97
2019-08-07 01:00:00 19.6 4 Noroeste 13 Sudoeste 0 -- -- 96
2019-08-07 00:00:00 19.9 4 Sur 14 Oeste 0 -- -- 95
2019-08-06 23:00:00 20.3 6 Sudoeste 10 Oeste 0 -- -- 91
2019-08-06 22:00:00 20.8 3 Norte 6 Noroeste 0 -- -- 88
2019-08-06 21:00:00 21.7 3 Nordeste 14 Nordeste 0 -- -- 85
2019-08-06 20:00:00 22.5 10 Norte 16 Norte 0 -- -- 82
2019-08-06 19:00:00 23.1 13 Norte 21 Norte 0 -- -- 80
2019-08-06 18:00:00 24 10 Nordeste 22 Norte 0 -- -- 80
2019-08-06 17:00:00 25.6 14 Nordeste 27 Nordeste 0 -- -- 75
2019-08-06 16:00:00 26.9 14 Nordeste 24 Nordeste 0 -- -- 69
2019-08-06 15:00:00 27.2 12 Nordeste 20 Norte 0 -- -- 70
2019-08-06 14:00:00 26.5 8 Nordeste 18 Este 0 -- -- 72
2019-08-06 13:00:00 25.1 10 Este 15 Este 0 -- -- 76
2019-08-06 12:00:00 24.9 5 Nordeste 13 Este 0 -- -- 79
2019-08-06 11:00:00 22.7 4 Nordeste 12 Este 0 -- -- 85
2019-08-06 10:00:00 18.9 0 Calma 6 Sudoeste 0 -- -- 100
2019-08-06 09:00:00 17.5 3 Oeste 7 Sudoeste 0 -- -- 100
2019-08-06 08:00:00 16.2 6 Sudoeste 9 Sudoeste 0 -- -- 100
2019-08-06 07:00:00 15.8 4 Sudoeste 8 Sudoeste 0 -- -- 100
2019-08-06 06:00:00 16 3 Sudoeste 8 Sudoeste 0 -- -- 100
2019-08-06 05:00:00 16.4 4 Sudoeste 9 Sudoeste 0 -- -- 100
2019-08-06 04:00:00 16.3 6 Oeste 8 Oeste 0 -- -- 100
2019-08-06 03:00:00 16.7 2 Oeste 6 Sur 0 -- -- 99
2019-08-06 02:00:00 17.4 4 Sudoeste 7 Oeste 0 -- -- 98
2019-08-06 01:00:00 17.9 3 Sudoeste 6 Oeste 0 -- -- 97
2019-08-06 00:00:00 18.6 5 Oeste 7 Oeste 0 -- -- 94
2019-08-05 23:00:00 19.6 3 Este 13 Nordeste 0 -- -- 93
2019-08-05 22:00:00 20.3 5 Nordeste 13 Nordeste 0 -- -- 90
2019-08-05 21:00:00 21.4 6 Nordeste 18 Este 0 -- -- 86
2019-08-05 20:00:00 22.7 10 Este 19 Este 0 -- -- 81
2019-08-05 19:00:00 23.1 9 Este 19 Este 0 -- -- 80
2019-08-05 18:00:00 23.4 10 Este 21 Sudeste 0 -- -- 78
2019-08-05 17:00:00 23.8 14 Este 21 Este 0 -- -- 76
2019-08-05 16:00:00 23.6 12 Este 20 Este 0 -- -- 77
2019-08-05 15:00:00 25.4 8 Este 17 Este 0 -- -- 72
2019-08-05 14:00:00 23.8 8 Este 14 Este 0 -- -- 81
2019-08-05 13:00:00 22 6 Este 13 Sudeste 0 -- -- 85
2019-08-05 12:00:00 22.3 4 Este 10 Norte 0 -- -- 84
2019-08-05 11:00:00 21.7 2 Norte 9 Oeste 0 -- -- 87
2019-08-05 10:00:00 19.6 4 Sudoeste 9 Oeste 0 -- -- 97
2019-08-05 09:00:00 17.3 3 Oeste 8 Sudoeste 0 -- -- 100
2019-08-05 08:00:00 15.7 5 Oeste 8 Oeste 0 -- -- 100
2019-08-05 07:00:00 15.6 0 Calma 7 Sudoeste 0 -- -- 100
2019-08-05 06:00:00 15.9 4 Sudoeste 6 Sudoeste 0 -- -- 100
2019-08-05 05:00:00 16.2 4 Sudoeste 6 Sudoeste 0 -- -- 99
2019-08-05 04:00:00 16.8 3 Sudoeste 5 Sudoeste 0 -- -- 99
2019-08-05 03:00:00 17.3 4 Sudoeste 7 Sudoeste 0 -- -- 99
2019-08-05 02:00:00 17.6 3 Oeste 5 Oeste 0 -- -- 98
2019-08-05 01:00:00 18.3 3 Oeste 5 Sudoeste 0 -- -- 97
2019-08-05 00:00:00 19 3 Sudoeste 6 Oeste 0 -- -- 95
2019-08-04 23:00:00 19.5 4 Sur 8 Sudoeste 0 -- -- 94
2019-08-04 22:00:00 20.6 5 Oeste 6 Oeste 0 -- -- 89
2019-08-04 21:00:00 21.2 3 Norte 13 Nordeste 0 -- -- 87
2019-08-04 20:00:00 21.7 6 Nordeste 14 Nordeste 0 -- -- 84
2019-08-04 19:00:00 22.4 5 Nordeste 18 Nordeste 0 -- -- 82
2019-08-04 18:00:00 23.3 9 Norte 18 Norte 0 -- -- 80
2019-08-04 17:00:00 22.9 6 Nordeste 15 Nordeste 0 -- -- 83
2019-08-04 16:00:00 22.2 7 Nordeste 16 Nordeste 0 -- -- 83
2019-08-04 15:00:00 22.3 9 Nordeste 18 Nordeste 0 -- -- 82
2019-08-04 14:00:00 22.6 7 Nordeste 15 Norte 0 -- -- 84
2019-08-04 13:00:00 22.2 9 Nordeste 15 Nordeste 0 -- -- 87
2019-08-04 12:00:00 22.6 2 Oeste 9 Sur 0 -- -- 85
2019-08-04 11:00:00 21.2 6 Sudoeste 9 Sudoeste 0 -- -- 92
2019-08-04 10:00:00 19.3 2 Sudeste 9 Sudoeste 0 -- -- 99
2019-08-04 09:00:00 18 2 Sudoeste 4 Sudoeste 0 -- -- 100
2019-08-04 08:00:00 17.3 3 Oeste 5 Sudoeste 0 -- -- 100
2019-08-04 07:00:00 17 2 Oeste 4 Norte 0 -- -- 100
2019-08-04 06:00:00 17.2 2 Oeste 5 Oeste 0 -- -- 99
2019-08-04 05:00:00 17.4 0 Calma 5 Sudoeste 0 -- -- 99
2019-08-04 04:00:00 17.8 2 Sudoeste 6 Oeste 0 -- -- 98
2019-08-04 03:00:00 18 4 Sudoeste 6 Sur 0 -- -- 98
2019-08-04 02:00:00 18.3 2 Norte 6 Sudoeste 0 -- -- 95
2019-08-04 01:00:00 18.9 3 Sudoeste 5 Sudoeste 0 -- -- 94
2019-08-04 00:00:00 19.5 2 Este 4 Este 0 -- -- 91
2019-08-03 23:00:00 20.8 0 Calma 6 Nordeste 0 -- -- 85
2019-08-03 22:00:00 21.7 0 Calma 9 Nordeste 0 -- -- 83
2019-08-03 21:00:00 22.8 5 Nordeste 18 Nordeste 0 -- -- 81
2019-08-03 20:00:00 24.6 12 Nordeste 21 Nordeste 0 -- -- 76
2019-08-03 19:00:00 25.6 12 Nordeste 23 Norte 0 -- -- 74
2019-08-03 18:00:00 26.2 12 Nordeste 26 Norte 0 -- -- 72
2019-08-03 17:00:00 26.6 14 Nordeste 27 Norte 0 -- -- 72
2019-08-03 16:00:00 26.9 15 Nordeste 26 Norte 0 -- -- 74
2019-08-03 15:00:00 27.1 14 Nordeste 25 Nordeste 0 -- -- 73
2019-08-03 14:00:00 27.2 14 Nordeste 22 Norte 0 -- -- 73
2019-08-03 13:00:00 26.6 9 Nordeste 17 Norte 0 -- -- 73
2019-08-03 12:00:00 25.3 9 Nordeste 17 Norte 0 -- -- 75
2019-08-03 11:00:00 23.8 6 Nordeste 12 Norte 0 -- -- 82
2019-08-03 10:00:00 20.8 3 Nordeste 5 Oeste 0 -- -- 87
2019-08-03 09:00:00 17.6 3 Sudoeste 7 Sudoeste 0 -- -- 97
2019-08-03 08:00:00 15.3 6 Sudoeste 9 Sudoeste 0 -- -- 100
2019-08-03 07:00:00 15.2 5 Sudoeste 7 Sudoeste 0 -- -- 99
2019-08-03 06:00:00 15.8 5 Sudoeste 8 Sudoeste 0 -- -- 98
2019-08-03 05:00:00 16.6 4 Sudoeste 6 Sudoeste 0 -- -- 97
2019-08-03 04:00:00 17.1 5 Oeste 7 Oeste 0 -- -- 95
2019-08-03 03:00:00 17.7 5 Sudoeste 8 Sudoeste 0 -- -- 94
2019-08-03 02:00:00 17.8 4 Oeste 8 Oeste 0 -- -- 94
2019-08-03 01:00:00 18 3 Oeste 6 Oeste 0 -- -- 95
2019-08-03 00:00:00 18.2 6 Oeste 9 Oeste 0 -- -- 93
2019-08-02 23:00:00 18.6 3 Este 5 Nordeste 0 -- -- 90
2019-08-02 22:00:00 19.5 3 Norte 11 Este 0 -- -- 85
2019-08-02 21:00:00 20.8 6 Este 17 Este 0 -- -- 81
2019-08-02 20:00:00 22.6 9 Nordeste 21 Este 0 -- -- 74
2019-08-02 19:00:00 23.2 11 Este 22 Este 0 -- -- 71
2019-08-02 18:00:00 23.7 13 Este 25 Sudeste 0 -- -- 68
2019-08-02 17:00:00 24.2 14 Este 27 Sudeste 0 -- -- 70
2019-08-02 16:00:00 24.5 14 Este 26 Sudeste 0 -- -- 68
2019-08-02 15:00:00 24.3 12 Este 21 Sudeste 0 -- -- 74
2019-08-02 14:00:00 24.1 6 Nordeste 22 Este 0 -- -- 77
2019-08-02 13:00:00 23.1 8 Este 18 Este 0 -- -- 79
2019-08-02 12:00:00 22.6 7 Nordeste 13 Norte 0 -- -- 82
2019-08-02 11:00:00 21.5 2 Nordeste 6 Oeste 0 -- -- 85
2019-08-02 10:00:00 19.9 2 Sudoeste 6 Sudoeste 0 -- -- 92
2019-08-02 09:00:00 18.8 3 Oeste 5 Sudoeste 0 -- -- 98
2019-08-02 08:00:00 18 0 Calma 5 Oeste 0 -- -- 99
2019-08-02 07:00:00 17.9 3 Sur 7 Sudoeste 0 -- -- 99
2019-08-02 06:00:00 17.9 0 Calma 4 Oeste 0 -- -- 98
2019-08-02 05:00:00 18 4 Oeste 6 Sudoeste 0 -- -- 98
2019-08-02 04:00:00 18.2 4 Sudoeste 6 Sudoeste 0 -- -- 97
2019-08-02 03:00:00 18.3 2 Sudoeste 4 Oeste 0 -- -- 97
2019-08-02 02:00:00 18.4 3 Oeste 6 Sudoeste 0 -- -- 97
2019-08-02 01:00:00 18.5 3 Sudoeste 7 Sudoeste 0 -- -- 97
2019-08-02 00:00:00 18.6 4 Sudoeste 8 Sudoeste 0 -- -- 96
2019-08-01 23:00:00 18.8 4 Sudoeste 6 Oeste 0 -- -- 96
2019-08-01 22:00:00 18.9 4 Oeste 5 Sudoeste 0 -- -- 95
2019-08-01 21:00:00 19.3 3 Sudoeste 6 Norte 0 -- -- 92
2019-08-01 20:00:00 19.6 4 Norte 12 Norte 0 -- -- 91
2019-08-01 19:00:00 19.6 8 Norte 15 Este 0 -- -- 89
2019-08-01 18:00:00 20.2 9 Nordeste 20 Nordeste 0 -- -- 85
2019-08-01 17:00:00 20.8 10 Nordeste 21 Nordeste 0 -- -- 85
2019-08-01 16:00:00 22.5 12 Norte 27 Norte 0 -- -- 79
2019-08-01 15:00:00 23.2 15 Norte 27 Norte 0 -- -- 74
2019-08-01 14:00:00 23 9 Norte 23 Norte 0 -- -- 76
2019-08-01 13:00:00 23.5 8 Noroeste 18 Norte 0 -- -- 80
2019-08-01 12:00:00 22 6 Sudoeste 14 Sudoeste 0 -- -- 84
2019-08-01 11:00:00 19.9 5 Sudoeste 11 Sudoeste 0 -- -- 89
2019-08-01 10:00:00 17.7 4 Sudoeste 12 Sudoeste 0 -- -- 99
2019-08-01 09:00:00 17 0 Calma 10 Nordeste 0.2 -- -- 98
2019-08-01 08:00:00 17.1 5 Nordeste 10 Nordeste 0 -- -- 97
2019-08-01 07:00:00 17.4 8 Noroeste 24 Este 1.4 -- -- 96
2019-08-01 06:00:00 17.9 13 Noroeste 44 Noroeste 5 -- -- 93
2019-08-01 05:00:00 18.4 13 Oeste 27 Noroeste 0 -- -- 93
2019-08-01 04:00:00 19.2 3 Este 8 Este 0 -- -- 88
2019-08-01 03:00:00 19.4 3 Nordeste 11 Nordeste 0 -- -- 85
2019-08-01 02:00:00 19.3 4 Nordeste 10 Este 0 -- -- 85
2019-08-01 01:00:00 19.3 4 Nordeste 7 Nordeste 0 -- -- 83
2019-08-01 00:00:00 19.3 4 Nordeste 8 Este 0 -- -- 84
2019-07-31 23:00:00 19.4 3 Nordeste 6 Este 0 -- -- 80
2019-07-31 22:00:00 19.6 4 Nordeste 11 Este 0 -- -- 81
2019-07-31 21:00:00 20.2 5 Este 18 Este 0 -- -- 76
2019-07-31 20:00:00 20.9 9 Este 20 Este 0 -- -- 71
2019-07-31 19:00:00 21.3 9 Este 19 Este 0 -- -- 70
2019-07-31 18:00:00 21.3 10 Este 21 Este 0 -- -- 70
2019-07-31 17:00:00 21.3 9 Este 26 Este 0 -- -- 67
2019-07-31 16:00:00 21.6 10 Sudeste 25 Este 0 -- -- 67
2019-07-31 15:00:00 22 15 Sudeste 25 Este 0 -- -- 65
2019-07-31 14:00:00 22.3 12 Este 23 Este 0 -- -- 65
2019-07-31 13:00:00 21.8 14 Este 24 Este 0 -- -- 66
2019-07-31 12:00:00 21.4 11 Este 21 Sudeste 0 -- -- 69
2019-07-31 11:00:00 20.4 4 Este 8 Sudeste 0 -- -- 77
2019-07-31 10:00:00 16.5 4 Oeste 6 Oeste 0 -- -- 89
2019-07-31 09:00:00 14.1 5 Sudoeste 9 Sudoeste 0 -- -- 97
2019-07-31 08:00:00 11.8 5 Sudoeste 10 Sudoeste 0 -- -- 100
2019-07-31 07:00:00 11.2 5 Sudoeste 10 Oeste 0 -- -- 99
2019-07-31 06:00:00 11.4 6 Sudoeste 8 Oeste 0 -- -- 99
2019-07-31 05:00:00 11.8 4 Oeste 8 Sudoeste 0 -- -- 98
2019-07-31 04:00:00 12.1 5 Oeste 8 Sudoeste 0 -- -- 98
2019-07-31 03:00:00 12.5 4 Sudoeste 9 Sudoeste 0 -- -- 97
2019-07-31 02:00:00 13.3 4 Sudoeste 6 Sudoeste 0 -- -- 95
2019-07-31 01:00:00 14.1 4 Sudoeste 6 Sudoeste 0 -- -- 94
2019-07-31 00:00:00 14.9 4 Sudoeste 9 Sudoeste 0 -- -- 90
2019-07-30 23:00:00 16.3 8 Oeste 10 Oeste 0 -- -- 85
2019-07-30 22:00:00 17.8 0 Calma 10 Nordeste 0 -- -- 78
2019-07-30 21:00:00 19.2 6 Norte 18 Norte 0 -- -- 73
2019-07-30 20:00:00 20.7 8 Nordeste 25 Norte 0 -- -- 68
2019-07-30 19:00:00 20.7 14 Norte 31 Norte 0 -- -- 70
2019-07-30 18:00:00 22.1 13 Nordeste 28 Norte 0 -- -- 64
2019-07-30 17:00:00 22.5 14 Nordeste 33 Este 0 -- -- 65
2019-07-30 16:00:00 22.4 18 Nordeste 33 Nordeste 0 -- -- 57
2019-07-30 15:00:00 23.1 14 Nordeste 29 Norte 0 -- -- 61
2019-07-30 14:00:00 22.5 10 Norte 32 Norte 0 -- -- 64
2019-07-30 13:00:00 21.3 15 Norte 37 Nordeste 0 -- -- 63
2019-07-30 12:00:00 22.2 11 Norte 32 Noroeste 0 -- -- 62
2019-07-30 11:00:00 20.5 9 Oeste 19 Oeste 0 -- -- 71
2019-07-30 10:00:00 19.5 6 Noroeste 14 Norte 0 -- -- 73
2019-07-30 09:00:00 17.3 6 Sudoeste 10 Sudoeste 0 -- -- 93
2019-07-30 08:00:00 15.7 4 Sudoeste 11 Sudoeste 0 -- -- 99
2019-07-30 07:00:00 15.7 7 Sudoeste 11 Oeste 0 -- -- 98
2019-07-30 06:00:00 15.9 6 Oeste 13 Sudoeste 0 -- -- 98
2019-07-30 05:00:00 16.1 6 Sudoeste 15 Sudoeste 0.2 -- -- 98
2019-07-30 04:00:00 16.3 8 Sudoeste 15 Sudoeste 0 -- -- 97
2019-07-30 03:00:00 16.5 10 Oeste 18 Sudoeste 0 -- -- 95
2019-07-30 02:00:00 16.8 8 Sudoeste 15 Sudoeste 0.4 -- -- 96
2019-07-30 01:00:00 17.1 6 Oeste 14 Sudoeste 0.2 -- -- 97
2019-07-30 00:00:00 17.1 9 Oeste 15 Oeste 0 -- -- 96
2019-07-29 23:00:00 17.2 6 Oeste 11 Sudoeste 0.2 -- -- 96
2019-07-29 22:00:00 17.8 3 Sur 10 Sudoeste 0.2 -- -- 93
2019-07-29 21:00:00 19.1 5 Oeste 28 Norte 0 -- -- 83
2019-07-29 20:00:00 20.9 5 Norte 28 Nordeste 0 -- -- 75
2019-07-29 19:00:00 21.2 4 Norte 15 Nordeste 0 -- -- 74
2019-07-29 18:00:00 21.3 9 Nordeste 19 Nordeste 0 -- -- 70
2019-07-29 17:00:00 21.1 8 Nordeste 23 Nordeste 0 -- -- 74
2019-07-29 16:00:00 21.7 13 Nordeste 28 Nordeste 0 -- -- 75
2019-07-29 15:00:00 22.4 15 Nordeste 34 Nordeste 0 -- -- 75
2019-07-29 14:00:00 24.7 16 Nordeste 32 Norte 0 -- -- 67
2019-07-29 13:00:00 25.4 17 Norte 30 Norte 0 -- -- 64
2019-07-29 12:00:00 24.8 14 Norte 30 Noroeste 0 -- -- 66
2019-07-29 11:00:00 23.8 10 Noroeste 22 Norte 0 -- -- 68
2019-07-29 10:00:00 20.7 4 Sudoeste 12 Sudoeste 0 -- -- 83
2019-07-29 09:00:00 16.3 5 Sudoeste 10 Sudoeste 0 -- -- 98
2019-07-29 08:00:00 13.6 7 Oeste 10 Oeste 0 -- -- 100
2019-07-29 07:00:00 12.9 7 Sudoeste 12 Sudoeste 0 -- -- 100
2019-07-29 06:00:00 13.2 6 Sudoeste 9 Oeste 0 -- -- 100
2019-07-29 05:00:00 13.4 5 Sudoeste 9 Oeste 0 -- -- 100
2019-07-29 04:00:00 13.8 4 Sudoeste 8 Sudoeste 0 -- -- 99
2019-07-29 03:00:00 14.2 5 Sudoeste 7 Sudoeste 0 -- -- 99
2019-07-29 02:00:00 14.8 4 Sudoeste 10 Sudoeste 0 -- -- 98
2019-07-29 01:00:00 15.4 7 Oeste 9 Oeste 0 -- -- 96
2019-07-29 00:00:00 16.3 2 Nordeste 5 Nordeste 0 -- -- 94
2019-07-28 23:00:00 17.3 2 Sudeste 9 Nordeste 0 -- -- 88
2019-07-28 22:00:00 18.3 5 Norte 13 Este 0 -- -- 85
2019-07-28 21:00:00 19.9 9 Este 18 Este 0 -- -- 78
2019-07-28 20:00:00 21.3 13 Este 23 Sudeste 0 -- -- 73
2019-07-28 19:00:00 22.1 13 Este 23 Este 0 -- -- 70
2019-07-28 18:00:00 22.7 14 Este 22 Este 0 -- -- 68
2019-07-28 17:00:00 22.8 13 Este 23 Este 0 -- -- 69
2019-07-28 16:00:00 22.8 13 Este 21 Este 0 -- -- 69
2019-07-28 15:00:00 22.3 9 Nordeste 21 Este 0 -- -- 71
2019-07-28 14:00:00 21.9 4 Sur 12 Sur 0 -- -- 70
2019-07-28 13:00:00 19.5 4 Sur 14 Noroeste 0 -- -- 84
2019-07-28 12:00:00 17.7 5 Sur 17 Norte 0.2 -- -- 95
2019-07-28 11:00:00 17.4 9 Nordeste 18 Nordeste 0 -- -- 93
2019-07-28 10:00:00 19.8 6 Sudoeste 12 Sur 0 -- -- 90
2019-07-28 09:00:00 17 4 Sudoeste 10 Sur 0 -- -- 100
2019-07-28 08:00:00 15.3 5 Oeste 10 Sudoeste 0.2 -- -- 100
2019-07-28 07:00:00 14.9 5 Sudoeste 12 Sudoeste 0 -- -- 100
2019-07-28 06:00:00 15.3 5 Sudoeste 10 Oeste 0.2 -- -- 100
2019-07-28 05:00:00 15.3 5 Sur 13 Sur 0.4 -- -- 100
2019-07-28 04:00:00 15.4 5 Sur 12 Sudoeste 1.6 -- -- 100
2019-07-28 03:00:00 15.5 3 Oeste 9 Sur 0 -- -- 100
2019-07-28 02:00:00 15.5 7 Sudoeste 13 Sudoeste 1 -- -- 100
2019-07-28 01:00:00 15.7 6 Sudoeste 14 Sudoeste 1.4 -- -- 100
2019-07-28 00:00:00 16 9 Sudoeste 14 Sudoeste 1.6 -- -- 98
2019-07-27 23:00:00 16.1 4 Sudoeste 10 Sudoeste 0 -- -- 98
2019-07-26 12:00:00 -- -- -- -- -- -- -- -- --
2019-07-26 11:00:00 18.5 5 Oeste 8 Oeste 1 -- -- 100
2019-07-26 10:00:00 18.1 3 Sudoeste 13 Noroeste 0 -- -- 100
2019-07-26 09:00:00 17.9 12 Nordeste 23 Este 3.6 -- -- 100
2019-07-26 08:00:00 19.2 7 Nordeste 20 Norte 6.6 -- -- 100
2019-07-26 07:00:00 19.8 6 Nordeste 14 Norte 1 -- -- 100
2019-07-26 06:00:00 19.8 3 Oeste 8 Sudeste 0.6 -- -- 100
2019-07-26 05:00:00 19.9 5 Noroeste 9 Sudoeste 0.4 -- -- 100
2019-07-26 04:00:00 19.9 3 Oeste 14 Sudoeste 0.6 -- -- 100
2019-07-26 03:00:00 20.1 6 Oeste 11 Oeste 1.4 -- -- 99
2019-07-26 02:00:00 20.4 3 Sudoeste 7 Sudoeste 0.6 -- -- 99
2019-07-26 01:00:00 20.4 5 Oeste 9 Oeste 0 -- -- 99
2019-07-26 00:00:00 20.6 3 Norte 5 Noroeste 0 -- -- 97
2019-07-25 23:00:00 21 3 Noroeste 12 Nordeste 0.8 -- -- 97
2019-07-25 22:00:00 21.4 4 Noroeste 13 Este 1.8 -- -- 97
2019-07-25 21:00:00 21.6 7 Nordeste 21 Nordeste 2 -- -- 95
2019-07-25 20:00:00 22.6 10 Sudoeste 19 Oeste 0 -- -- 91
2019-07-25 19:00:00 23.3 10 Nordeste 19 Nordeste 0 -- -- 88
2019-07-25 18:00:00 23.1 9 Nordeste 23 Nordeste 0 -- -- 88
2019-07-25 17:00:00 24.1 10 Nordeste 23 Nordeste 0 -- -- 84
2019-07-25 16:00:00 26.2 12 Nordeste 26 Nordeste 0 -- -- 79
2019-07-25 15:00:00 28.2 15 Nordeste 27 Norte 0 -- -- 76
2019-07-25 14:00:00 27.5 17 Nordeste 29 Norte 0 -- -- 76
2019-07-25 13:00:00 27.3 15 Nordeste 27 Nordeste 0 -- -- 78
2019-07-25 12:00:00 26.9 12 Nordeste 22 Nordeste 0 -- -- 81
2019-07-25 11:00:00 25.6 12 Nordeste 22 Norte 0 -- -- 84
2019-07-25 10:00:00 23.8 8 Nordeste 14 Nordeste 0 -- -- 92
2019-07-25 09:00:00 22.8 0 Calma 6 Sudoeste 0 -- -- 94
2019-07-25 08:00:00 21.2 5 Sudoeste 9 Sudoeste 0 -- -- 98
2019-07-25 07:00:00 21 6 Sudoeste 12 Sudoeste 0 -- -- 97
2019-07-25 06:00:00 21.3 5 Sudoeste 11 Sudoeste 0 -- -- 96
2019-07-25 05:00:00 21.5 6 Sudoeste 12 Oeste 0 -- -- 96
2019-07-25 04:00:00 21.6 7 Sudoeste 12 Sudoeste 0 -- -- 96
2019-07-25 03:00:00 21.7 8 Sudoeste 15 Sudoeste 0 -- -- 97
2019-07-25 02:00:00 21.4 7 Sudoeste 11 Sudoeste 0 -- -- 98
2019-07-25 01:00:00 20.9 6 Sudoeste 14 Oeste 0 -- -- 97
2019-07-25 00:00:00 21.4 5 Nordeste 13 Nordeste 0 -- -- 96
2019-07-24 23:00:00 22.5 5 Sudoeste 11 Sudoeste 0 -- -- 95
2019-07-24 22:00:00 23.6 5 Oeste 9 Noroeste 0 -- -- 91
2019-07-24 21:00:00 23.9 4 Noroeste 18 Oeste 0 -- -- 93
2019-07-24 20:00:00 24.5 3 Sur 16 Sudoeste 0.2 -- -- 91
2019-07-24 19:00:00 26.1 8 Nordeste 27 Nordeste 2.6 -- -- 87
2019-07-24 18:00:00 30.1 15 Nordeste 27 Norte 0 -- -- 70
2019-07-24 17:00:00 29.7 18 Nordeste 28 Norte 0 -- -- 72
2019-07-24 16:00:00 30 18 Nordeste 29 Norte 0 -- -- 70
2019-07-24 15:00:00 30.1 15 Nordeste 25 Nordeste 0 -- -- 70
2019-07-24 14:00:00 30 10 Nordeste 17 Nordeste 0 -- -- 74
2019-07-24 13:00:00 28.2 7 Este 15 Nordeste 0 -- -- 77
2019-07-24 12:00:00 27 8 Nordeste 20 Nordeste 0 -- -- 78
2019-07-24 11:00:00 26 4 Nordeste 9 Este 0 -- -- 82
2019-07-24 10:00:00 24 4 Este 8 Este 0 -- -- 89
2019-07-24 09:00:00 21.6 4 Sur 9 Oeste 0 -- -- 100
2019-07-24 08:00:00 19.8 5 Sudoeste 9 Oeste 0 -- -- 100
2019-07-24 07:00:00 19.2 0 Calma 15 Oeste 0 -- -- 99
2019-07-24 06:00:00 20.2 7 Sudoeste 14 Sudoeste 0 -- -- 98
2019-07-24 05:00:00 20 7 Nordeste 12 Este 0 -- -- 100
2019-07-24 04:00:00 20.3 3 Nordeste 8 Noroeste 0 -- -- 99
2019-07-24 03:00:00 20.5 4 Sudoeste 13 Oeste 0 -- -- 99
2019-07-24 02:00:00 20.7 3 Norte 10 Oeste 0 -- -- 98
2019-07-24 01:00:00 21 5 Oeste 15 Sudoeste 0 -- -- 97
2019-07-24 00:00:00 21.6 5 Sudoeste 31 Norte 0 -- -- 94
2019-07-23 23:00:00 21.3 4 Sudoeste 15 Sudoeste 0 -- -- 96
2019-07-23 22:00:00 21.9 13 Norte 67 Oeste 0.2 -- -- 93
2019-07-23 21:00:00 21.9 6 Sudeste 31 Noroeste 0.2 -- -- 97
2019-07-23 20:00:00 22.1 8 Nordeste 46 Noroeste 9.8 -- -- 96
2019-07-23 19:00:00 26.6 16 Noroeste 30 Noroeste 4.2 -- -- 77
2019-07-23 18:00:00 31.6 19 Norte 35 Norte 0 -- -- 50
2019-07-23 17:00:00 33.7 21 Nordeste 35 Nordeste 0 -- -- 46
2019-07-23 16:00:00 39.8 11 Nordeste 29 Nordeste 0 -- -- 36
2019-07-23 15:00:00 38.3 13 Oeste 20 Oeste 0 -- -- 29
2019-07-23 14:00:00 37.1 8 Sudoeste 22 Oeste 0 -- -- 32
2019-07-23 13:00:00 36.2 12 Sudoeste 33 Sur 0 -- -- 32
2019-07-23 12:00:00 34.2 13 Oeste 33 Oeste 0 -- -- 35
2019-07-23 11:00:00 33.6 21 Oeste 33 Oeste 0 -- -- 35
2019-07-23 10:00:00 30.5 21 Oeste 35 Oeste 0 -- -- 40
2019-07-23 09:00:00 22.5 3 Oeste 13 Oeste 0 -- -- 92
2019-07-23 08:00:00 19.4 6 Sudoeste 13 Sudoeste 0 -- -- 99
2019-07-23 07:00:00 18.7 5 Sudoeste 8 Sudoeste 0 -- -- 99
2019-07-23 06:00:00 18.8 7 Oeste 10 Noroeste 0 -- -- 98
2019-07-23 05:00:00 19.6 5 Sudoeste 11 Sur 0 -- -- 97
2019-07-23 04:00:00 20 7 Sudoeste 11 Oeste 0 -- -- 96
2019-07-23 03:00:00 20.5 6 Oeste 12 Oeste 0 -- -- 94
2019-07-23 02:00:00 21.4 4 Sudoeste 14 Sudoeste 0 -- -- 92
2019-07-23 01:00:00 21.8 7 Sudoeste 20 Noroeste 0 -- -- 90
2019-07-23 00:00:00 22.6 6 Noroeste 33 Noroeste 0 -- -- 88
2019-07-22 23:00:00 23 6 Sudoeste 9 Oeste 0 -- -- 88
2019-07-22 22:00:00 24.1 3 Sur 14 Norte 0 -- -- 79
2019-07-22 21:00:00 24.9 9 Norte 27 Norte 0 -- -- 77
2019-07-22 20:00:00 26.2 17 Norte 27 Norte 0 -- -- 77
2019-07-22 19:00:00 28.1 13 Nordeste 27 Nordeste 0 -- -- 71
2019-07-22 18:00:00 29 15 Nordeste 25 Nordeste 0 -- -- 68
2019-07-22 17:00:00 28.6 19 Norte 32 Norte 0 -- -- 67
2019-07-22 16:00:00 28.8 19 Nordeste 30 Norte 0 -- -- 66
2019-07-22 15:00:00 29 15 Nordeste 26 Nordeste 0 -- -- 65
2019-07-22 14:00:00 28.5 14 Nordeste 22 Nordeste 0 -- -- 67
2019-07-22 13:00:00 27.9 12 Nordeste 22 Nordeste 0 -- -- 69
2019-07-22 12:00:00 27.5 7 Norte 14 Norte 0 -- -- 69
2019-07-22 11:00:00 25.1 3 Sudeste 9 Sur 0 -- -- 76
2019-07-22 10:00:00 22.1 4 Oeste 6 Sudoeste 0 -- -- 85
2019-07-22 09:00:00 21.8 0 Calma 5 Oeste 0 -- -- 88
2019-07-22 08:00:00 20 0 Calma 7 Oeste 0 -- -- 95
2019-07-22 07:00:00 20 3 Sudoeste 4 Sudoeste 0 -- -- 94
2019-07-22 06:00:00 20.1 0 Calma 5 Oeste 0 -- -- 93
2019-07-22 05:00:00 20.4 0 Calma 2 Norte 0 -- -- 93
2019-07-22 04:00:00 20.5 0 Calma 3 Sudeste 0 -- -- 92
2019-07-22 03:00:00 20.7 0 Calma 4 Nordeste 0 -- -- 91
2019-07-22 02:00:00 20.8 0 Calma 4 Oeste 0 -- -- 89
2019-07-22 01:00:00 21.1 0 Calma 8 Nordeste 0 -- -- 85
2019-07-22 00:00:00 21.3 3 Norte 10 Nordeste 0 -- -- 86
2019-07-21 23:00:00 21.4 5 Nordeste 9 Nordeste 0 -- -- 87
2019-07-21 22:00:00 21.8 3 Nordeste 8 Nordeste 0 -- -- 85
2019-07-21 21:00:00 22.2 5 Nordeste 11 Norte 0 -- -- 83
2019-07-21 20:00:00 22.5 8 Nordeste 21 Nordeste 0 -- -- 79
2019-07-21 19:00:00 24 9 Nordeste 20 Nordeste 0 -- -- 77
2019-07-21 18:00:00 25.8 8 Nordeste 18 Norte 0 -- -- 72
2019-07-21 17:00:00 24.2 10 Este 21 Este 0 -- -- 74
2019-07-21 16:00:00 23.6 12 Este 21 Este 0 -- -- 78
2019-07-21 15:00:00 24 10 Este 19 Este 0 -- -- 77
2019-07-21 14:00:00 22.7 6 Este 15 Norte 0 -- -- 84
2019-07-21 13:00:00 21.8 7 Este 18 Nordeste 0 -- -- 89
2019-07-21 12:00:00 21.9 5 Nordeste 12 Norte 0 -- -- 94
2019-07-21 11:00:00 21.9 10 Norte 14 Norte 0 -- -- 95
2019-07-21 10:00:00 21.1 3 Nordeste 9 Nordeste 0 -- -- 100
2019-07-21 09:00:00 19.7 2 Sudeste 5 Sudeste 0.6 -- -- 100
2019-07-21 08:00:00 19.4 0 Calma 5 Noroeste 0.6 -- -- 99
2019-07-21 07:00:00 19.4 3 Sudeste 6 Oeste 0 -- -- 99
2019-07-21 06:00:00 19.5 0 Calma 5 Oeste 0.6 -- -- 98
2019-07-21 05:00:00 19.6 0 Calma 7 Sudoeste 0 -- -- 96
2019-07-21 04:00:00 19.6 3 Oeste 5 Oeste 0 -- -- 96
2019-07-21 03:00:00 19.7 3 Sudoeste 5 Oeste 0 -- -- 95
2019-07-21 02:00:00 19.9 2 Sudeste 4 Sur 0 -- -- 94
2019-07-21 01:00:00 20.1 4 Oeste 6 Oeste 0 -- -- 93
2019-07-21 00:00:00 20.6 2 Este 4 Nordeste 0 -- -- 90